aviador You're here:

KMGW Decoded Metar

MORGANTOWN in WV, USA
Report Time2018-05-26 14:53:00
UTC Time2018-05-26 15:38:45
Flight Rules vfr VFR
Wind220° at 06 kt
W.Decomp.*RWY 18: 3.9 kt HW 4.5 kt RCW
W.Rank220° ranks 4
Current wind is below 220° avg. (6.6)
Visibility9999 m
Phenomena:N/A
Clouds:N/A
Expected CloudBase > 2,400 ft AGL from Temp-Dew spread
CeilingNone
Temp26°C (ISA +13)
Dew Point20°C (70% RH)
QNH1013 hPa
Density Alt3,107 ft
Elevation1,240 ft
Report Wrong Elevation
Raw Report
KMGW 261453Z 22006KT 10SM CLR 26/20 A2992 RMK AO2 SLP122 T02610200
58001=

Extra information for KMGW:More info

Metar Taf Metar & Taf Last 4 Metars F.Rules Stats Wind Profile Meteogram Temp Stats Airport Information Weather charts Add Link Nearby VenuesMetar ALERT Operation Metar Decoded Social comments

AIRNAV info for KMGW